Time;durP1;ratioP1;P1;durP2;ratioP2;P2;SDS_P1;SDS_P2;PMS_P1;PMS_P2;Temp;Humidity;BMP_temperature;BMP_pressure;BME280_temperature;BME280_humidity;BME280_pressure;Samples;Min_cycle;Max_cycle;Signal;HPM_P1;HPM_P2
2021/05/31 00:01:09;;;;;;;8.67;7.37;;;;;;;15.22;58.75;101249.50;5078161;28;20563;-71
2021/05/31 00:03:35;;;;;;;10.80;7.63;;;;;;;15.39;58.14;101243.34;5100063;28;20562;-71
2021/05/31 00:06:02;;;;;;;10.30;6.67;;;;;;;15.34;58.21;101244.78;5099497;28;20536;-71
2021/05/31 00:08:28;;;;;;;8.70;6.97;;;;;;;15.28;58.52;101245.41;5102782;28;21013;-71
2021/05/31 00:10:55;;;;;;;10.77;8.13;;;;;;;15.36;58.18;101246.34;5102703;28;20570;-71
2021/05/31 00:13:21;;;;;;;11.93;8.17;;;;;;;15.29;58.34;101239.84;5098710;28;20471;-72
2021/05/31 00:15:47;;;;;;;9.80;7.80;;;;;;;15.17;58.49;101238.31;5095620;28;20546;-72
2021/05/31 00:18:15;;;;;;;9.00;7.10;;;;;;;15.13;58.69;101240.44;5101406;28;20515;-71
2021/05/31 00:20:41;;;;;;;12.93;7.30;;;;;;;14.76;60.00;101238.56;5077557;28;20540;-71
2021/05/31 00:23:07;;;;;;;10.90;6.83;;;;;;;14.71;60.41;101226.53;5100409;28;20491;-71
2021/05/31 00:25:33;;;;;;;8.97;7.50;;;;;;;14.73;60.29;101232.63;5092504;28;20544;-71
2021/05/31 00:28:00;;;;;;;10.10;6.77;;;;;;;14.64;60.28;101220.88;5079079;28;20469;-71
2021/05/31 00:30:26;;;;;;;11.27;7.80;;;;;;;14.71;60.13;101218.44;5086024;28;20471;-71
2021/05/31 00:32:53;;;;;;;12.40;8.70;;;;;;;14.86;59.78;101225.94;5078836;28;20452;-72
2021/05/31 00:35:20;;;;;;;11.13;9.30;;;;;;;14.79;60.10;101215.88;5099294;28;20515;-71
2021/05/31 00:37:48;;;;;;;10.30;8.50;;;;;;;14.86;59.79;101223.25;5078720;28;20452;-72
2021/05/31 00:40:16;;;;;;;13.13;9.27;;;;;;;15.03;59.41;101224.34;5080684;28;20518;-72
2021/05/31 00:42:42;;;;;;;10.73;7.67;;;;;;;15.07;59.24;101225.72;5096640;28;20722;-71
2021/05/31 00:45:10;;;;;;;16.27;8.97;;;;;;;14.98;59.35;101231.13;5091087;28;20575;-72
2021/05/31 00:47:37;;;;;;;12.83;8.90;;;;;;;14.98;58.91;101223.06;5070978;28;20488;-72
2021/05/31 00:50:04;;;;;;;12.03;8.77;;;;;;;14.83;59.72;101222.69;5062236;28;20453;-72
2021/05/31 00:52:30;;;;;;;12.23;8.73;;;;;;;14.90;59.76;101217.56;5074739;28;20517;-72
2021/05/31 00:54:56;;;;;;;11.43;9.10;;;;;;;14.89;59.43;101222.09;5102045;28;20478;-71
2021/05/31 00:57:24;;;;;;;14.67;9.23;;;;;;;14.86;59.70;101217.00;5108739;28;20470;-71
2021/05/31 00:59:50;;;;;;;12.53;8.20;;;;;;;14.86;59.50;101219.72;5106988;28;21051;-71
2021/05/31 01:02:17;;;;;;;11.90;8.67;;;;;;;14.79;59.77;101213.19;5115157;28;20498;-71
2021/05/31 01:04:43;;;;;;;14.13;9.30;;;;;;;14.76;60.29;101217.03;5124830;28;20452;-71
2021/05/31 01:07:12;;;;;;;9.70;8.13;;;;;;;14.65;59.92;101204.56;5106252;28;20481;-72
2021/05/31 01:09:45;;;;;;;15.20;9.67;;;;;;;14.48;60.77;101216.88;5121305;28;20807;-71
2021/05/31 01:12:19;;;;;;;13.37;8.80;;;;;;;14.39;61.16;101209.66;5106992;28;20532;-71
2021/05/31 01:14:50;;;;;;;11.73;9.77;;;;;;;14.52;60.89;101213.91;5110846;28;20514;-71
2021/05/31 01:17:22;;;;;;;12.07;9.43;;;;;;;14.07;62.47;101213.44;5120756;28;20509;-71
2021/05/31 01:20:15;;;;;;;14.83;10.40;;;;;;;14.20;61.67;101197.06;5126561;28;21095;-71
2021/05/31 01:22:43;;;;;;;12.13;9.40;;;;;;;14.29;61.53;101214.19;5115578;28;20480;-71
2021/05/31 01:25:17;;;;;;;13.00;9.37;;;;;;;14.09;62.31;101207.94;5108227;28;20507;-71
2021/05/31 01:27:55;;;;;;;10.80;9.50;;;;;;;14.23;61.69;101201.28;5118076;28;20505;-71
2021/05/31 01:30:23;;;;;;;15.73;9.77;;;;;;;14.12;62.15;101202.28;5094870;28;20512;-71
2021/05/31 01:32:52;;;;;;;15.60;10.70;;;;;;;14.04;62.17;101202.97;5099637;28;20529;-71
2021/05/31 01:35:23;;;;;;;14.73;10.07;;;;;;;14.07;62.50;101204.53;5103535;28;20525;-72
2021/05/31 01:37:49;;;;;;;15.77;11.50;;;;;;;14.13;62.67;101204.00;5102446;28;20446;-71
2021/05/31 01:40:16;;;;;;;17.00;11.70;;;;;;;14.20;62.15;101204.25;5104796;28;20491;-71
2021/05/31 01:42:42;;;;;;;19.30;12.23;;;;;;;14.27;62.50;101202.72;5112968;28;20434;-71
2021/05/31 01:45:11;;;;;;;24.33;12.80;;;;;;;14.31;62.35;101194.22;5114059;28;21136;-71
2021/05/31 01:47:39;;;;;;;18.60;11.47;;;;;;;14.34;62.22;101194.91;5102323;28;20542;-71
2021/05/31 01:50:06;;;;;;;23.00;12.60;;;;;;;14.28;62.16;101202.56;5114638;28;20545;-71
2021/05/31 01:52:33;;;;;;;19.80;12.03;;;;;;;14.43;61.77;101197.63;5110118;28;20538;-72
2021/05/31 01:54:59;;;;;;;18.10;11.70;;;;;;;14.38;61.84;101190.97;5085463;28;20446;-71
2021/05/31 01:57:26;;;;;;;18.83;11.80;;;;;;;14.37;61.62;101195.47;5103723;28;20542;-72
2021/05/31 01:59:52;;;;;;;14.90;11.53;;;;;;;14.27;62.12;101195.50;5115637;28;20956;-71
2021/05/31 02:02:19;;;;;;;17.93;11.70;;;;;;;14.17;62.33;101191.97;5092262;28;20511;-71
2021/05/31 02:04:47;;;;;;;15.90;11.50;;;;;;;14.25;62.08;101186.72;5085100;28;20535;-72
2021/05/31 02:07:13;;;;;;;16.47;12.30;;;;;;;14.22;62.21;101183.47;5124662;28;20505;-72
2021/05/31 02:09:39;;;;;;;21.03;11.93;;;;;;;14.19;62.39;101186.44;5125627;28;20525;-72
2021/05/31 02:12:08;;;;;;;18.47;12.20;;;;;;;14.25;61.82;101178.66;5125348;28;20556;-71
2021/05/31 02:14:42;;;;;;;16.53;10.07;;;;;;;14.10;62.10;101172.84;5121790;28;20443;-71
2021/05/31 02:17:14;;;;;;;13.43;10.43;;;;;;;14.22;61.66;101175.41;5100004;28;20842;-71
2021/05/31 02:19:41;;;;;;;16.27;11.30;;;;;;;14.17;61.82;101174.97;5098827;28;20987;-72
2021/05/31 02:22:09;;;;;;;17.20;11.27;;;;;;;14.13;61.89;101172.56;5105149;28;20487;-71
2021/05/31 02:24:36;;;;;;;17.90;11.90;;;;;;;14.05;62.13;101171.56;5104028;28;20518;-71
2021/05/31 02:27:03;;;;;;;19.80;12.70;;;;;;;13.95;62.35;101176.94;5104784;28;20502;-72
2021/05/31 02:29:29;;;;;;;22.10;13.10;;;;;;;13.77;62.47;101171.41;5111384;28;20554;-72
2021/05/31 02:31:56;;;;;;;18.13;12.77;;;;;;;13.65;63.68;101169.81;5098692;28;20563;-71
2021/05/31 02:34:22;;;;;;;21.13;13.50;;;;;;;13.60;64.17;101175.59;5110967;28;20943;-72
2021/05/31 02:36:49;;;;;;;20.53;12.40;;;;;;;13.72;63.54;101174.50;5104434;28;20627;-72
2021/05/31 02:39:17;;;;;;;19.20;13.67;;;;;;;13.75;63.70;101166.16;5104230;28;20482;-71
2021/05/31 02:41:43;;;;;;;22.83;14.30;;;;;;;13.67;63.49;101170.53;5104072;28;20728;-71
2021/05/31 02:44:09;;;;;;;23.03;14.03;;;;;;;13.56;64.08;101172.34;5103792;28;20904;-72
2021/05/31 02:46:35;;;;;;;20.83;14.90;;;;;;;13.19;65.35;101162.16;5102744;28;20543;-71
2021/05/31 02:49:03;;;;;;;22.20;13.90;;;;;;;13.24;65.24;101163.56;5120536;28;20497;-71
2021/05/31 02:51:29;;;;;;;18.70;14.20;;;;;;;13.16;65.29;101158.91;5103118;28;20475;-72
2021/05/31 02:53:55;;;;;;;21.10;13.50;;;;;;;13.28;64.70;101155.13;5092488;28;20569;-71
2021/05/31 02:56:22;;;;;;;22.63;15.23;;;;;;;13.11;65.76;101156.59;5092374;28;20459;-72
2021/05/31 02:58:48;;;;;;;27.93;16.93;;;;;;;13.12;66.27;101163.69;5104573;28;20442;-71
2021/05/31 03:01:15;;;;;;;21.23;14.93;;;;;;;13.30;65.53;101160.38;5071807;28;20564;-71
2021/05/31 03:03:41;;;;;;;27.03;17.60;;;;;;;13.11;66.13;101163.81;5094585;28;20515;-72
2021/05/31 03:06:07;;;;;;;30.93;17.30;;;;;;;13.41;65.60;101173.69;5089639;28;20495;-72
2021/05/31 03:08:34;;;;;;;33.97;19.40;;;;;;;13.55;65.23;101167.94;5084009;28;20516;-71
2021/05/31 03:11:00;;;;;;;28.87;18.13;;;;;;;13.55;65.25;101159.88;5085620;28;20584;-71
2021/05/31 03:13:27;;;;;;;29.57;19.10;;;;;;;13.61;65.18;101168.38;5083945;28;20445;-71
2021/05/31 03:15:54;;;;;;;26.00;17.60;;;;;;;13.72;64.83;101173.66;5093842;28;20498;-72
2021/05/31 03:18:20;;;;;;;28.13;17.60;;;;;;;13.72;64.41;101168.28;5100895;28;20498;-72
2021/05/31 03:20:46;;;;;;;30.77;19.10;;;;;;;13.62;64.56;101170.09;5080843;28;20562;-71
2021/05/31 03:23:12;;;;;;;24.20;16.60;;;;;;;13.69;64.65;101174.75;5083915;28;20451;-71
2021/05/31 03:25:39;;;;;;;28.40;16.80;;;;;;;13.83;63.82;101170.00;5078732;28;20495;-72
2021/05/31 03:28:05;;;;;;;31.13;16.23;;;;;;;13.80;64.18;101172.94;5063062;28;20469;-72
2021/05/31 03:30:33;;;;;;;32.30;18.30;;;;;;;13.84;63.53;101177.06;5066765;28;20537;-73
2021/05/31 03:32:59;;;;;;;31.60;18.57;;;;;;;13.90;63.65;101166.59;5081326;28;20466;-71
2021/05/31 03:35:26;;;;;;;28.20;18.67;;;;;;;14.30;63.17;101171.03;5087544;28;20546;-71
2021/05/31 03:37:52;;;;;;;31.40;17.60;;;;;;;14.73;61.44;101168.00;5103513;28;20542;-72
2021/05/31 03:40:21;;;;;;;25.30;17.43;;;;;;;15.40;59.35;101169.59;5099418;28;20515;-72
2021/05/31 03:42:47;;;;;;;22.77;16.50;;;;;;;16.03;56.70;101172.50;5082776;28;20448;-72
2021/05/31 03:45:14;;;;;;;23.10;15.87;;;;;;;16.31;55.49;101168.72;5087902;28;20461;-72
2021/05/31 03:47:41;;;;;;;25.50;15.10;;;;;;;17.06;53.21;101165.53;5082892;28;20575;-72
2021/05/31 03:50:08;;;;;;;22.00;14.57;;;;;;;17.37;51.86;101172.28;5082348;28;20531;-71
2021/05/31 03:52:35;;;;;;;18.23;13.77;;;;;;;17.98;50.38;101176.53;5099659;28;20478;-72
2021/05/31 03:55:01;;;;;;;20.50;14.10;;;;;;;18.12;50.04;101175.03;5103390;28;20524;-72
2021/05/31 03:57:27;;;;;;;25.73;12.77;;;;;;;18.57;48.42;101178.28;5101056;28;20501;-71
2021/05/31 03:59:53;;;;;;;17.23;12.30;;;;;;;18.92;47.43;101177.09;5117271;28;20522;-72
2021/05/31 04:02:20;;;;;;;23.60;13.93;;;;;;;19.25;47.00;101176.13;5095255;28;20479;-73
2021/05/31 04:04:51;;;;;;;17.90;12.87;;;;;;;19.91;44.66;101176.69;5119474;28;20525;-72
2021/05/31 04:12:46;;;;;;;20.43;12.60;;;;;;;20.80;43.05;101174.31;5103018;28;20496;-73
2021/05/31 04:15:13;;;;;;;19.87;13.60;;;;;;;20.84;42.45;101174.78;5113529;28;20530;-72
2021/05/31 04:17:39;;;;;;;19.93;13.80;;;;;;;20.27;43.65;101176.09;5104658;28;20487;-72
2021/05/31 04:20:09;;;;;;;17.50;13.57;;;;;;;19.28;46.00;101190.19;5110816;28;20462;-72
2021/05/31 04:22:35;;;;;;;20.00;14.50;;;;;;;18.75;47.48;101183.53;5103713;28;20447;-72
2021/05/31 04:25:01;;;;;;;20.03;14.30;;;;;;;18.05;49.31;101183.00;5082540;28;20567;-72
2021/05/31 04:27:27;;;;;;;23.33;15.57;;;;;;;17.14;51.96;101186.38;5081415;28;20475;-72
2021/05/31 04:29:53;;;;;;;23.80;15.40;;;;;;;17.13;52.61;101181.97;5098848;28;20461;-72
2021/05/31 04:32:20;;;;;;;25.73;16.60;;;;;;;16.97;53.11;101185.44;5097165;28;20525;-71
2021/05/31 04:34:46;;;;;;;29.80;18.43;;;;;;;16.54;54.65;101182.59;5101281;28;20466;-71
2021/05/31 04:37:13;;;;;;;26.23;18.67;;;;;;;16.30;56.03;101179.66;5101186;28;21003;-72
2021/05/31 04:39:39;;;;;;;28.33;19.10;;;;;;;16.51;55.59;101185.59;5100154;28;20892;-72
2021/05/31 04:42:06;;;;;;;35.90;19.90;;;;;;;16.47;56.05;101189.59;5101468;28;20577;-72
2021/05/31 04:44:32;;;;;;;33.10;19.57;;;;;;;16.53;56.14;101188.13;5104596;28;20443;-72
2021/05/31 04:46:58;;;;;;;31.43;19.67;;;;;;;16.45;56.76;101182.66;5114924;28;20538;-72
2021/05/31 04:49:25;;;;;;;36.60;20.57;;;;;;;16.73;56.11;101186.94;5122311;28;20506;-72
2021/05/31 04:51:51;;;;;;;32.73;19.97;;;;;;;16.87;55.89;101188.25;5115030;28;20480;-71
2021/05/31 04:54:18;;;;;;;30.97;20.87;;;;;;;16.72;56.81;101192.50;5101642;28;20428;-72
2021/05/31 04:56:45;;;;;;;29.37;20.00;;;;;;;16.29;57.88;101186.91;5101175;28;20519;-71
2021/05/31 04:59:12;;;;;;;36.50;20.47;;;;;;;16.28;58.16;101189.75;5101922;28;20458;-71
2021/05/31 05:01:38;;;;;;;28.17;19.00;;;;;;;16.21;58.50;101188.69;5098311;28;20530;-71
2021/05/31 05:04:06;;;;;;;28.60;19.90;;;;;;;16.30;58.53;101195.84;5118785;28;20475;-70
2021/05/31 05:06:32;;;;;;;30.60;21.53;;;;;;;15.82;60.35;101195.22;5121352;28;20978;-70
2021/05/31 05:08:58;;;;;;;30.77;19.07;;;;;;;15.87;60.08;101201.00;5103470;28;20440;-70
2021/05/31 05:11:26;;;;;;;31.70;20.27;;;;;;;15.68;61.06;101201.09;5100898;28;21244;-69
2021/05/31 05:13:52;;;;;;;39.83;19.53;;;;;;;15.24;62.47;101201.72;5118460;28;20859;-70
2021/05/31 05:16:18;;;;;;;31.83;19.70;;;;;;;15.47;62.39;101202.19;5097846;28;21277;-69
2021/05/31 05:18:45;;;;;;;34.90;19.67;;;;;;;15.73;61.43;101205.03;5102129;28;20523;-70
2021/05/31 05:21:11;;;;;;;29.13;19.30;;;;;;;15.24;63.19;101197.19;5095054;28;20575;-70
2021/05/31 05:23:37;;;;;;;30.03;20.77;;;;;;;15.50;63.06;101199.22;5113216;28;20467;-70
2021/05/31 05:26:03;;;;;;;25.20;19.63;;;;;;;16.13;60.69;101192.19;5100990;28;20490;-71
2021/05/31 05:28:32;;;;;;;26.83;19.77;;;;;;;16.38;60.01;101187.84;5101237;28;20435;-71
2021/05/31 05:31:02;;;;;;;27.73;18.63;;;;;;;16.25;60.56;101187.38;5107777;28;20493;-71
2021/05/31 05:33:29;;;;;;;29.90;19.47;;;;;;;16.85;58.79;101184.00;5121612;28;20471;-69
2021/05/31 05:35:58;;;;;;;25.63;18.93;;;;;;;16.52;60.20;101184.56;5104439;28;20574;-70
2021/05/31 05:38:37;;;;;;;29.40;20.87;;;;;;;16.35;59.86;101188.13;5101250;28;20507;-70
2021/05/31 05:41:29;;;;;;;25.73;17.63;;;;;;;16.06;61.27;101182.97;5100240;28;20463;-70
2021/05/31 05:44:10;;;;;;;29.93;19.43;;;;;;;16.42;60.76;101188.38;5109399;28;20449;-70
2021/05/31 05:46:43;;;;;;;24.47;18.17;;;;;;;15.70;62.30;101188.31;5100615;28;20505;-70
2021/05/31 05:49:09;;;;;;;42.87;20.23;;;;;;;15.15;64.51;101191.81;5096909;28;20758;-70
2021/05/31 05:51:35;;;;;;;30.37;20.53;;;;;;;15.55;63.07;101183.41;5088957;28;20487;-68
2021/05/31 05:54:02;;;;;;;33.73;21.27;;;;;;;15.70;63.17;101185.63;5094586;28;20584;-68
2021/05/31 05:56:28;;;;;;;35.73;21.47;;;;;;;15.62;63.31;101189.06;5103922;28;20470;-69
2021/05/31 05:58:56;;;;;;;30.50;21.13;;;;;;;15.98;62.70;101191.84;5100839;28;20510;-68
2021/05/31 06:01:23;;;;;;;31.63;21.27;;;;;;;16.13;61.89;101184.09;5103420;28;20479;-69
2021/05/31 06:03:51;;;;;;;36.23;21.63;;;;;;;16.37;61.12;101187.00;5097706;28;20454;-69
2021/05/31 06:06:18;;;;;;;26.40;19.37;;;;;;;16.49;60.56;101184.91;5103165;28;20528;-69
2021/05/31 06:08:44;;;;;;;30.53;21.00;;;;;;;16.36;60.81;101189.84;5104368;28;20463;-69
2021/05/31 06:11:10;;;;;;;27.97;19.77;;;;;;;16.55;59.90;101195.06;5103947;28;20498;-69
2021/05/31 06:13:36;;;;;;;27.87;19.23;;;;;;;16.50;60.23;101191.97;5096516;28;20482;-71
2021/05/31 06:16:05;;;;;;;29.37;20.03;;;;;;;16.32;61.26;101193.88;5113384;28;20493;-74
2021/05/31 06:18:31;;;;;;;29.50;21.27;;;;;;;16.84;59.17;101198.50;5087577;28;20469;-75
2021/05/31 06:20:57;;;;;;;30.90;21.83;;;;;;;16.74;59.60;101188.63;5096561;28;20502;-74
2021/05/31 06:23:24;;;;;;;29.53;22.50;;;;;;;16.87;59.59;101190.94;5099289;28;20504;-72
2021/05/31 06:25:50;;;;;;;28.10;20.00;;;;;;;17.32;58.20;101191.69;5103256;28;21551;-76
2021/05/31 06:28:16;;;;;;;27.13;20.07;;;;;;;17.40;58.13;101199.84;5089562;28;20491;-71
2021/05/31 06:30:43;;;;;;;27.90;20.13;;;;;;;17.76;56.61;101190.66;5096762;28;20494;-71
2021/05/31 06:33:11;;;;;;;26.43;20.90;;;;;;;17.52;57.38;101189.59;5097663;28;20520;-74
2021/05/31 06:35:37;;;;;;;24.47;18.60;;;;;;;17.22;57.70;101189.13;5089805;28;20899;-67
2021/05/31 06:38:04;;;;;;;27.13;19.33;;;;;;;17.42;57.42;101189.72;5087805;28;20445;-70
2021/05/31 06:40:30;;;;;;;29.10;19.30;;;;;;;17.42;57.57;101194.28;5103002;28;20520;-65
2021/05/31 06:42:57;;;;;;;25.73;21.20;;;;;;;17.44;57.48;101200.38;5100020;28;20438;-67
2021/05/31 06:45:25;;;;;;;27.80;19.50;;;;;;;17.75;56.56;101206.06;5095616;28;20458;-67
2021/05/31 06:47:53;;;;;;;26.97;19.77;;;;;;;17.08;58.45;101195.97;5104608;28;20515;-67
2021/05/31 06:50:21;;;;;;;26.60;19.90;;;;;;;16.79;58.98;101196.25;5101676;28;20451;-68
2021/05/31 06:52:47;;;;;;;30.80;20.67;;;;;;;17.38;57.25;101192.91;5091750;28;20480;-71
2021/05/31 06:55:15;;;;;;;24.53;19.23;;;;;;;18.15;55.03;101195.53;5072956;28;20497;-67
2021/05/31 06:57:42;;;;;;;24.20;18.67;;;;;;;17.72;55.74;101194.72;5082444;28;20570;-73
2021/05/31 07:00:10;;;;;;;25.27;20.07;;;;;;;18.02;55.32;101187.91;5078308;28;20449;-71
2021/05/31 07:02:36;;;;;;;26.37;20.77;;;;;;;18.75;53.01;101192.50;5080407;28;20472;-72
2021/05/31 07:05:03;;;;;;;26.30;18.00;;;;;;;20.34;49.85;101195.22;5073803;28;21129;-72
2021/05/31 07:07:30;;;;;;;21.30;16.90;;;;;;;22.98;43.32;101201.69;5080083;28;20503;-73
2021/05/31 07:09:56;;;;;;;20.90;17.43;;;;;;;23.50;41.49;101187.56;5099163;28;20479;-74
2021/05/31 07:12:23;;;;;;;19.80;15.30;;;;;;;25.92;36.60;101192.75;5101656;28;20471;-73
2021/05/31 07:14:51;;;;;;;21.40;15.87;;;;;;;26.18;35.47;101192.81;5081724;28;20445;-74
2021/05/31 07:17:18;;;;;;;17.80;14.83;;;;;;;25.33;36.87;101188.38;5071060;28;20468;-70
2021/05/31 07:19:45;;;;;;;17.90;14.80;;;;;;;24.39;38.79;101196.63;5081631;28;20436;-75
2021/05/31 07:22:13;;;;;;;16.67;14.97;;;;;;;25.72;36.72;101186.53;5072898;28;20559;-71
2021/05/31 07:24:42;;;;;;;19.47;16.03;;;;;;;26.27;35.99;101183.28;5082269;28;20490;-74
2021/05/31 07:27:08;;;;;;;16.70;15.00;;;;;;;28.94;31.17;101179.97;5081144;28;20510;-74
2021/05/31 07:29:34;;;;;;;18.53;15.57;;;;;;;28.46;30.95;101183.72;5077368;28;20483;-73
2021/05/31 07:32:00;;;;;;;14.83;13.43;;;;;;;29.40;29.62;101182.91;5065763;28;20543;-72
2021/05/31 07:34:27;;;;;;;15.00;13.40;;;;;;;30.00;28.11;101184.38;5082878;28;20543;-72
2021/05/31 07:36:53;;;;;;;15.73;13.90;;;;;;;30.30;27.86;101175.81;5081542;28;20555;-72
2021/05/31 07:39:19;;;;;;;16.30;13.40;;;;;;;31.27;26.36;101178.41;5077810;28;20491;-69
2021/05/31 07:41:47;;;;;;;15.33;13.87;;;;;;;32.24;25.11;101176.75;5081742;28;20529;-76
2021/05/31 07:44:13;;;;;;;16.90;14.97;;;;;;;31.40;26.59;101171.66;5080330;28;20473;-74
2021/05/31 07:46:39;;;;;;;16.10;14.47;;;;;;;30.21;27.86;101160.75;5090933;28;20478;-74
2021/05/31 07:49:05;;;;;;;15.37;13.90;;;;;;;29.56;28.74;101175.78;5080339;28;20472;-75
2021/05/31 07:51:32;;;;;;;16.40;14.70;;;;;;;30.02;28.33;101163.75;5080009;28;20508;-75
2021/05/31 07:53:59;;;;;;;14.10;12.60;;;;;;;31.65;26.42;101162.88;5080032;28;20484;-75
2021/05/31 07:56:27;;;;;;;15.97;13.57;;;;;;;31.78;25.95;101161.63;5081829;28;20503;-76
2021/05/31 07:58:55;;;;;;;15.17;13.77;;;;;;;31.36;25.85;101154.75;5081243;28;20466;-75
2021/05/31 08:01:22;;;;;;;15.00;13.40;;;;;;;30.64;26.68;101155.66;5075327;28;20505;-76
2021/05/31 08:03:48;;;;;;;15.33;13.83;;;;;;;30.89;26.64;101158.00;5074389;28;20445;-71
2021/05/31 08:06:15;;;;;;;15.00;13.60;;;;;;;30.66;27.50;101154.34;5060201;28;20518;-73
2021/05/31 08:08:42;;;;;;;15.00;13.30;;;;;;;30.97;27.36;101155.66;5067469;28;20440;-78
2021/05/31 08:11:09;;;;;;;14.50;13.10;;;;;;;31.00;27.01;101150.69;5080918;28;20485;-73
2021/05/31 08:13:35;;;;;;;15.40;13.90;;;;;;;32.62;24.97;101155.50;5080115;28;20968;-73
2021/05/31 08:16:03;;;;;;;11.20;10.10;;;;;;;32.48;24.72;101159.78;5083831;28;20542;-73
2021/05/31 08:18:29;;;;;;;12.47;11.17;;;;;;;33.17;23.54;101149.72;5068920;28;20473;-72
2021/05/31 08:20:55;;;;;;;12.20;10.90;;;;;;;34.05;21.83;101150.81;5059235;28;20506;-72
2021/05/31 08:23:21;;;;;;;12.33;11.10;;;;;;;33.37;23.73;101146.22;5073883;28;21217;-75
2021/05/31 08:25:47;;;;;;;12.37;11.00;;;;;;;32.92;24.20;101144.88;5065697;28;20477;-75
2021/05/31 08:28:14;;;;;;;10.93;9.80;;;;;;;34.11;22.52;101139.44;5071847;28;20483;-76
2021/05/31 08:30:42;;;;;;;12.67;11.37;;;;;;;32.25;24.53;101145.22;5091405;28;20502;-75
2021/05/31 08:33:10;;;;;;;12.60;11.10;;;;;;;32.38;24.62;101148.66;5088073;28;20578;-75
2021/05/31 08:35:37;;;;;;;11.33;10.23;;;;;;;32.76;23.97;101143.94;5080228;28;20490;-74
2021/05/31 08:38:04;;;;;;;13.57;10.07;;;;;;;31.75;25.14;101135.31;5075871;28;20457;-74
2021/05/31 08:40:30;;;;;;;11.20;9.70;;;;;;;30.37;26.14;101137.06;5074080;28;20896;-73
2021/05/31 08:42:56;;;;;;;12.23;10.40;;;;;;;30.57;25.65;101134.63;5074216;28;20455;-72
2021/05/31 08:45:25;;;;;;;12.00;10.13;;;;;;;31.72;23.89;101128.38;5089958;28;20451;-74
2021/05/31 08:47:53;;;;;;;10.40;9.30;;;;;;;31.93;24.06;101139.66;5091796;28;20668;-72
2021/05/31 08:50:22;;;;;;;11.73;9.60;;;;;;;32.38;23.69;101137.59;5079360;28;20459;-71
2021/05/31 08:52:49;;;;;;;10.07;8.83;;;;;;;31.82;23.75;101127.66;5077808;28;20488;-75
2021/05/31 08:55:18;;;;;;;9.20;8.30;;;;;;;30.85;25.16;101129.19;5080646;28;20432;-70
2021/05/31 08:57:44;;;;;;;10.67;8.00;;;;;;;30.81;24.25;101119.75;5076108;28;20436;-70
2021/05/31 09:00:15;;;;;;;9.60;8.40;;;;;;;31.26;22.99;101121.47;5074491;28;20480;-70
2021/05/31 09:02:42;;;;;;;8.47;7.60;;;;;;;31.80;23.34;101127.06;5077740;28;20519;-68
2021/05/31 09:05:10;;;;;;;8.20;7.27;;;;;;;32.69;22.81;101123.97;5076186;28;20455;-68
2021/05/31 09:07:37;;;;;;;9.07;6.93;;;;;;;32.15;22.87;101128.56;5079367;28;20508;-72
2021/05/31 09:10:05;;;;;;;10.80;8.00;;;;;;;32.14;22.50;101126.88;5079068;28;20483;-77
2021/05/31 09:12:35;;;;;;;11.87;7.90;;;;;;;30.94;24.62;101116.66;5080255;28;20890;-74
2021/05/31 09:15:02;;;;;;;8.23;6.80;;;;;;;31.00;23.60;101114.81;5070526;28;20510;-74
2021/05/31 09:17:30;;;;;;;8.80;6.37;;;;;;;31.84;22.82;101119.94;5071009;28;20483;-74
2021/05/31 09:19:56;;;;;;;10.63;7.23;;;;;;;33.13;21.83;101105.06;5076598;28;20443;-74
2021/05/31 09:22:24;;;;;;;6.40;5.30;;;;;;;32.58;21.26;101110.03;5059879;28;20484;-75
2021/05/31 09:24:56;;;;;;;5.50;4.60;;;;;;;31.08;20.84;101108.84;5061018;28;20445;-77
2021/05/31 09:27:22;;;;;;;4.40;3.10;;;;;;;31.15;18.77;101101.19;5063624;28;20499;-76
2021/05/31 09:29:55;;;;;;;5.00;3.03;;;;;;;30.01;18.58;101109.66;5063312;28;20440;-75
2021/05/31 09:32:21;;;;;;;3.20;2.70;;;;;;;28.93;19.20;101102.03;5084537;28;20485;-70
2021/05/31 09:34:57;;;;;;;3.33;2.77;;;;;;;29.62;20.38;101106.75;5084124;28;20440;-70
2021/05/31 09:37:23;;;;;;;5.40;2.70;;;;;;;30.66;18.40;101104.66;5082617;28;20509;-74
2021/05/31 09:40:00;;;;;;;5.30;2.83;;;;;;;30.28;18.95;101105.44;5084609;28;20436;-74
2021/05/31 09:42:26;;;;;;;2.77;2.47;;;;;;;30.21;19.08;101097.31;5083455;28;21007;-73
2021/05/31 09:45:01;;;;;;;4.77;2.60;;;;;;;31.46;17.17;101096.03;5083110;28;20447;-74
2021/05/31 09:47:28;;;;;;;3.50;2.67;;;;;;;30.41;17.59;101091.31;5080508;28;20569;-75
2021/05/31 09:49:55;;;;;;;2.93;2.33;;;;;;;29.89;18.47;101099.81;5084088;28;20481;-74
2021/05/31 09:52:21;;;;;;;2.70;2.30;;;;;;;29.45;18.21;101086.59;5077522;28;20487;-75
2021/05/31 09:54:49;;;;;;;2.87;2.50;;;;;;;28.96;19.37;101081.44;5084369;28;20436;-74
2021/05/31 09:57:19;;;;;;;3.00;2.30;;;;;;;29.18;19.83;101089.06;5082640;28;20505;-70
2021/05/31 09:59:46;;;;;;;3.90;2.97;;;;;;;29.31;19.91;101086.03;5072251;28;20460;-70
2021/05/31 10:02:16;;;;;;;3.47;2.70;;;;;;;30.35;18.96;101084.88;5083041;28;20507;-73
2021/05/31 10:04:49;;;;;;;4.50;3.03;;;;;;;29.84;19.27;101084.00;5083211;28;20483;-71
2021/05/31 10:07:24;;;;;;;5.63;2.80;;;;;;;28.61;21.29;101087.00;5083271;28;20491;-72
2021/05/31 10:09:51;;;;;;;4.57;3.27;;;;;;;29.48;20.50;101088.84;5075703;28;20493;-73
2021/05/31 10:12:18;;;;;;;4.40;3.70;;;;;;;30.42;20.31;101073.69;5078737;28;20537;-74
2021/05/31 10:14:46;;;;;;;4.60;3.10;;;;;;;31.44;18.93;101074.19;5077881;28;20666;-73
2021/05/31 10:17:13;;;;;;;7.70;3.77;;;;;;;29.91;21.41;101084.72;5077664;28;20500;-74
2021/05/31 10:19:40;;;;;;;6.27;4.03;;;;;;;29.64;21.23;101074.25;5082670;28;20447;-73
2021/05/31 10:22:07;;;;;;;5.73;4.63;;;;;;;29.04;23.43;101080.22;5074367;28;20905;-72
2021/05/31 10:24:33;;;;;;;4.33;3.60;;;;;;;28.92;23.27;101071.97;5082823;28;20456;-69
2021/05/31 10:27:00;;;;;;;4.53;3.50;;;;;;;28.38;23.55;101074.88;5083266;28;20495;-70
2021/05/31 10:29:28;;;;;;;3.90;3.40;;;;;;;27.38;23.22;101073.72;5082460;28;20451;-69
2021/05/31 10:31:54;;;;;;;3.50;3.20;;;;;;;28.55;22.57;101075.88;5099493;28;20479;-71
2021/05/31 10:34:21;;;;;;;8.17;3.93;;;;;;;29.47;21.95;101065.97;5087630;28;20455;-69
2021/05/31 10:36:50;;;;;;;4.23;3.70;;;;;;;30.03;20.75;101066.16;5075033;28;20482;-72
2021/05/31 10:39:24;;;;;;;4.47;4.07;;;;;;;28.68;22.22;101058.28;5091269;28;20443;-65
2021/05/31 10:41:51;;;;;;;4.23;3.60;;;;;;;28.97;22.05;101060.25;5081812;28;20537;-73
2021/05/31 10:44:18;;;;;;;3.80;3.27;;;;;;;28.66;21.97;101065.94;5099757;28;20446;-73
2021/05/31 10:46:46;;;;;;;4.83;3.20;;;;;;;28.31;22.87;101061.25;5100933;28;20524;-76
2021/05/31 10:49:17;;;;;;;4.40;3.53;;;;;;;28.64;23.04;101048.00;5096261;28;20458;-71
2021/05/31 10:51:43;;;;;;;4.23;3.63;;;;;;;28.25;22.51;101055.91;5101581;28;21060;-72
2021/05/31 10:54:10;;;;;;;6.17;3.70;;;;;;;28.77;22.13;101049.66;5103620;28;20621;-73
2021/05/31 10:56:37;;;;;;;6.17;5.53;;;;;;;27.49;23.86;101061.91;5096456;28;20525;-73
2021/05/31 10:59:03;;;;;;;7.13;4.77;;;;;;;27.82;23.14;101054.25;5087777;28;20446;-74
2021/05/31 11:01:38;;;;;;;4.73;3.83;;;;;;;28.15;24.13;101048.22;5083430;28;20484;-72
2021/05/31 11:04:07;;;;;;;4.67;4.03;;;;;;;28.16;23.54;101045.25;5100809;28;20450;-70
2021/05/31 11:06:43;;;;;;;5.77;4.27;;;;;;;28.95;23.01;101046.72;5101896;28;20466;-79
2021/05/31 11:09:10;;;;;;;4.80;4.20;;;;;;;28.87;21.97;101036.09;5102443;28;20454;-78
2021/05/31 11:11:37;;;;;;;5.50;3.90;;;;;;;28.55;23.37;101042.84;5101614;28;20502;-66
2021/05/31 11:14:04;;;;;;;5.77;4.27;;;;;;;28.18;23.63;101039.50;5073079;28;20438;-66
2021/05/31 11:16:33;;;;;;;6.50;5.07;;;;;;;28.44;22.70;101040.94;5083993;28;20474;-66
2021/05/31 11:19:01;;;;;;;5.00;4.17;;;;;;;27.57;24.51;101047.03;5089222;28;20474;-66
2021/05/31 11:21:31;;;;;;;5.93;4.93;;;;;;;27.55;25.16;101035.41;5085268;28;20565;-66